Time;durP1;ratioP1;P1;durP2;ratioP2;P2;SDS_P1;SDS_P2;PMS_P1;PMS_P2;Temp;Humidity;BMP_temperature;BMP_pressure;BME280_temperature;BME280_humidity;BME280_pressure;Samples;Min_cycle;Max_cycle;Signal;HPM_P1;HPM_P2
2021/01/06 01:42:08;;;;;;;;;;;;;;;;;;;;;
2021/01/06 04:02:18;;;;;;;13.63;9.45;;;1.90;99.90;;;;;;5824244;24;20188;-83
2021/01/06 05:06:51;;;;;;;17.27;11.37;;;1.80;99.90;;;;;;5724677;24;20203;-84
2021/01/06 07:19:29;;;;;;;15.80;11.93;;;1.70;99.90;;;;;;5827012;24;20343;-86
2021/01/06 07:39:19;;;;;;;12.93;11.27;;;1.50;99.90;;;;;;5986513;23;20304;-83
2021/01/06 11:02:27;;;;;;;10.68;8.10;;;2.40;99.90;;;;;;5758289;24;20313;-83
2021/01/06 11:05:08;;;;;;;11.45;8.20;;;2.30;99.90;;;;;;6089837;23;20181;-84
2021/01/06 11:08:12;;;;;;;11.68;8.35;;;2.40;99.90;;;;;;6103741;23;20204;-83
2021/01/06 11:10:58;;;;;;;14.68;10.25;;;2.30;99.90;;;;;;6103101;23;20184;-84
2021/01/06 11:13:38;;;;;;;9.10;8.00;;;2.30;99.90;;;;;;6102721;23;20165;-84
2021/01/06 11:16:10;;;;;;;9.57;7.90;;;2.30;99.90;;;;;;6103389;23;20161;-83
2021/01/06 11:18:43;;;;;;;15.73;11.25;;;2.30;99.90;;;;;;6110474;23;20201;-85
2021/01/06 11:24:54;;;;;;;12.00;10.65;;;2.40;99.90;;;;;;6106098;23;20185;-83
2021/01/06 11:27:44;;;;;;;11.60;9.32;;;2.50;99.90;;;;;;6108331;23;20197;-83
2021/01/06 11:30:42;;;;;;;10.95;9.85;;;2.50;99.90;;;;;;6107504;23;20177;-84
2021/01/06 11:33:51;;;;;;;11.77;9.40;;;2.50;99.90;;;;;;5992529;24;20243;-85
2021/01/06 11:36:58;;;;;;;13.13;10.35;;;2.50;99.90;;;;;;5989576;24;20179;-85
2021/01/06 11:42:47;;;;;;;9.93;8.23;;;2.50;99.90;;;;;;6108337;23;20169;-84
2021/01/06 11:45:17;;;;;;;10.10;9.02;;;2.60;99.90;;;;;;6110315;23;20168;-84
2021/01/06 11:47:48;;;;;;;11.10;8.90;;;2.60;99.90;;;;;;6112460;23;20216;-84
2021/01/06 11:50:36;;;;;;;11.95;8.43;;;2.60;99.90;;;;;;6110294;23;20176;-82
2021/01/06 11:53:25;;;;;;;11.20;10.10;;;2.60;99.90;;;;;;6109570;23;20225;-85
2021/01/06 11:56:03;;;;;;;9.93;8.10;;;2.60;99.90;;;;;;6103432;23;20188;-87
2021/01/06 11:58:54;;;;;;;11.80;10.35;;;2.60;99.90;;;;;;6112183;23;20205;-84
2021/01/06 12:01:51;;;;;;;11.95;10.52;;;2.60;99.90;;;;;;6106931;23;20169;-84
2021/01/06 12:04:47;;;;;;;12.07;9.32;;;2.70;99.90;;;;;;6110699;23;20177;-85
2021/01/06 12:07:30;;;;;;;10.88;9.77;;;2.70;99.90;;;;;;6107810;23;20208;-83
2021/01/06 12:10:18;;;;;;;10.75;8.52;;;2.70;99.90;;;;;;6111793;23;20169;-84
2021/01/06 12:13:05;;;;;;;9.82;8.40;;;2.70;99.90;;;;;;6111751;23;20204;-84
2021/01/06 12:15:46;;;;;;;12.20;10.00;;;2.60;99.90;;;;;;6099943;23;20185;-84
2021/01/06 12:18:25;;;;;;;11.35;10.10;;;2.60;99.90;;;;;;6109381;23;20232;-84
2021/01/06 12:20:53;;;;;;;11.75;10.20;;;2.70;99.90;;;;;;6115100;23;20173;-84
2021/01/06 12:23:50;;;;;;;8.52;7.10;;;2.70;99.90;;;;;;6113535;23;20184;-85
2021/01/06 12:26:42;;;;;;;9.95;8.25;;;2.70;99.90;;;;;;6111581;23;20680;-83
2021/01/06 12:29:13;;;;;;;9.57;7.93;;;2.80;99.90;;;;;;6109889;23;20705;-83
2021/01/06 12:31:47;;;;;;;12.63;9.18;;;2.80;99.90;;;;;;6105526;23;20228;-83
2021/01/06 12:34:16;;;;;;;13.02;9.50;;;2.90;99.90;;;;;;6108042;23;20169;-84
2021/01/06 12:37:17;;;;;;;10.05;8.18;;;2.80;99.90;;;;;;6111680;23;20256;-84
2021/01/06 12:39:48;;;;;;;9.95;8.82;;;2.80;99.90;;;;;;6107865;23;20164;-80
2021/01/06 12:42:30;;;;;;;9.25;7.70;;;2.80;99.90;;;;;;6103899;23;20165;-81
2021/01/06 12:45:07;;;;;;;9.80;8.18;;;2.80;99.90;;;;;;6105513;23;20165;-80
2021/01/06 12:47:42;;;;;;;12.98;10.10;;;2.80;99.90;;;;;;6102428;23;20208;-80
2021/01/06 12:50:16;;;;;;;10.88;9.20;;;2.90;99.90;;;;;;6104693;23;20168;-81
2021/01/06 12:52:46;;;;;;;11.48;9.10;;;2.90;99.90;;;;;;6103258;23;20192;-81
2021/01/06 12:55:26;;;;;;;14.38;9.73;;;2.90;99.90;;;;;;6107313;23;20195;-82
2021/01/06 12:58:00;;;;;;;14.70;9.32;;;3.00;99.90;;;;;;6106903;23;20235;-84
2021/01/06 13:00:38;;;;;;;11.30;9.68;;;3.00;99.90;;;;;;6108739;23;20169;-83
2021/01/06 13:03:22;;;;;;;9.25;7.28;;;3.00;99.90;;;;;;6110445;23;20168;-84
2021/01/06 13:05:53;;;;;;;10.73;9.35;;;3.10;99.90;;;;;;6107633;23;20189;-83
2021/01/06 13:08:37;;;;;;;13.65;8.77;;;3.10;99.90;;;;;;6113406;23;20213;-84
2021/01/06 13:11:10;;;;;;;9.43;7.53;;;3.00;99.90;;;;;;6114490;23;20483;-84
2021/01/06 13:13:39;;;;;;;8.90;7.78;;;2.90;99.90;;;;;;6108972;23;20180;-83
2021/01/06 13:16:21;;;;;;;7.80;7.10;;;2.90;99.90;;;;;;6112705;23;20181;-82
2021/01/06 13:18:51;;;;;;;8.10;7.40;;;2.90;99.90;;;;;;6105521;23;20200;-82
2021/01/06 13:21:23;;;;;;;7.90;7.10;;;2.90;99.90;;;;;;6104873;23;20563;-82
2021/01/06 13:24:00;;;;;;;8.80;7.57;;;2.90;99.90;;;;;;6105481;23;20169;-81
2021/01/06 13:26:33;;;;;;;7.18;6.47;;;2.70;99.90;;;;;;6104404;23;20189;-82
2021/01/06 13:29:21;;;;;;;7.53;6.32;;;2.80;99.90;;;;;;6105538;23;20169;-81
2021/01/06 13:32:04;;;;;;;6.45;5.85;;;2.80;99.90;;;;;;6104014;23;20169;-81
2021/01/06 13:34:34;;;;;;;8.32;6.70;;;2.80;99.90;;;;;;6104273;23;20511;-81
2021/01/06 13:37:03;;;;;;;7.53;6.70;;;2.70;99.90;;;;;;6104742;23;20228;-81
2021/01/06 13:39:37;;;;;;;8.27;7.00;;;2.60;99.90;;;;;;6104295;23;20181;-82
2021/01/06 13:42:24;;;;;;;14.50;10.98;;;2.70;99.90;;;;;;6105595;23;20248;-81
2021/01/06 13:44:53;;;;;;;5.55;5.15;;;2.60;99.90;;;;;;6104431;23;20187;-81
2021/01/06 13:47:22;;;;;;;9.80;7.55;;;2.60;99.90;;;;;;6103490;23;20593;-81
2021/01/06 13:50:03;;;;;;;24.60;16.10;;;2.60;99.90;;;;;;6107113;23;20610;-82
2021/01/06 13:52:36;;;;;;;11.63;7.68;;;2.60;99.90;;;;;;6108984;23;20175;-83
2021/01/06 13:55:17;;;;;;;38.72;23.10;;;2.60;99.90;;;;;;6114352;23;20204;-84
2021/01/06 13:57:59;;;;;;;9.65;8.02;;;2.50;99.90;;;;;;6110994;23;20260;-84
2021/01/06 14:00:35;;;;;;;24.17;15.77;;;2.40;99.90;;;;;;6114556;23;20165;-83
2021/01/06 14:03:21;;;;;;;17.17;10.65;;;2.50;99.90;;;;;;6110503;23;20161;-83
2021/01/06 14:05:52;;;;;;;11.68;9.70;;;2.40;99.90;;;;;;6107482;23;20233;-83
2021/01/06 14:08:26;;;;;;;13.00;8.95;;;2.40;99.90;;;;;;6109773;23;20211;-83
2021/01/06 14:11:12;;;;;;;8.43;7.63;;;2.40;99.90;;;;;;6109907;23;20176;-82
2021/01/06 14:13:53;;;;;;;11.32;8.40;;;2.50;99.90;;;;;;6108563;23;20624;-82
2021/01/06 14:16:28;;;;;;;13.68;9.75;;;2.50;99.90;;;;;;6107911;23;20270;-82
2021/01/06 14:19:19;;;;;;;9.70;8.40;;;2.50;99.90;;;;;;6108828;23;20206;-82
2021/01/06 14:21:52;;;;;;;8.98;7.93;;;2.50;99.90;;;;;;6111308;23;20169;-83
2021/01/06 14:24:21;;;;;;;8.00;7.03;;;2.50;99.90;;;;;;6109969;23;20172;-83
2021/01/06 14:26:49;;;;;;;6.68;5.97;;;2.50;99.90;;;;;;6115338;23;20764;-85
2021/01/06 14:29:39;;;;;;;8.10;6.88;;;2.60;99.90;;;;;;6115918;23;20188;-83
2021/01/06 14:32:33;;;;;;;9.18;7.45;;;2.60;99.90;;;;;;6111256;23;20169;-84
2021/01/06 14:35:24;;;;;;;11.80;7.80;;;2.50;99.90;;;;;;6114021;23;20196;-83
2021/01/06 14:38:23;;;;;;;11.88;8.70;;;2.60;99.90;;;;;;6114636;23;20211;-84
2021/01/06 14:40:52;;;;;;;7.15;5.88;;;2.70;99.90;;;;;;6113660;23;20176;-85
2021/01/06 14:43:44;;;;;;;6.85;6.25;;;2.60;99.90;;;;;;6113217;23;20239;-84
2021/01/06 14:46:29;;;;;;;10.13;9.13;;;2.60;99.90;;;;;;6113158;23;20196;-84
2021/01/06 14:49:01;;;;;;;6.32;5.80;;;2.60;99.90;;;;;;6111817;23;20301;-84
2021/01/06 14:51:53;;;;;;;7.35;6.30;;;2.50;99.90;;;;;;6110421;23;20207;-85
2021/01/06 14:54:34;;;;;;;15.13;11.75;;;2.40;99.90;;;;;;6100509;23;20228;-83
2021/01/06 14:57:05;;;;;;;6.88;6.30;;;2.50;99.90;;;;;;6103111;23;20206;-85
2021/01/06 14:59:38;;;;;;;7.95;7.18;;;2.50;99.90;;;;;;6103764;23;20169;-85
2021/01/06 15:02:19;;;;;;;6.38;5.35;;;2.40;99.90;;;;;;6103003;23;20200;-83
2021/01/06 15:04:57;;;;;;;7.50;5.97;;;2.40;99.90;;;;;;6103453;23;20168;-84
2021/01/06 15:07:35;;;;;;;5.80;5.30;;;2.40;99.90;;;;;;6100446;23;20698;-82
2021/01/06 15:10:10;;;;;;;7.93;7.05;;;2.40;99.90;;;;;;6098093;23;20168;-81
2021/01/06 15:12:38;;;;;;;6.20;5.60;;;2.30;99.90;;;;;;6100054;23;20169;-82
2021/01/06 15:15:08;;;;;;;7.40;5.93;;;2.40;99.90;;;;;;6103476;23;20181;-81
2021/01/06 15:17:42;;;;;;;6.47;5.70;;;2.30;99.90;;;;;;6103518;23;20201;-81
2021/01/06 15:20:25;;;;;;;6.30;5.32;;;2.30;99.90;;;;;;6103802;23;20172;-82
2021/01/06 15:22:56;;;;;;;8.77;6.22;;;2.30;99.90;;;;;;6103694;23;20172;-82
2021/01/06 15:25:26;;;;;;;6.90;6.20;;;2.30;99.90;;;;;;6104383;23;20513;-81
2021/01/06 15:27:59;;;;;;;6.95;6.25;;;2.40;99.90;;;;;;6104794;23;20685;-81
2021/01/06 15:30:28;;;;;;;6.82;6.10;;;2.40;99.90;;;;;;6106206;23;20170;-82
2021/01/06 15:33:01;;;;;;;9.60;7.70;;;2.40;99.90;;;;;;6106662;23;20184;-81
2021/01/06 15:35:41;;;;;;;17.63;14.70;;;2.40;99.90;;;;;;6103777;23;20181;-80
2021/01/06 15:38:17;;;;;;;7.22;6.63;;;2.40;99.90;;;;;;6105455;23;20328;-80
2021/01/06 15:40:43;;;;;;;8.57;7.53;;;2.40;99.90;;;;;;6104856;23;20197;-81
2021/01/06 15:43:16;;;;;;;9.38;7.72;;;2.40;99.90;;;;;;6104804;23;20184;-81
2021/01/06 15:45:42;;;;;;;12.32;9.23;;;2.50;99.90;;;;;;6105041;23;20189;-81
2021/01/06 15:48:20;;;;;;;16.13;14.40;;;2.50;99.90;;;;;;6104352;23;20208;-79
2021/01/06 15:50:58;;;;;;;10.30;8.98;;;2.40;99.90;;;;;;6098310;23;20169;-80
2021/01/06 15:53:24;;;;;;;12.63;11.43;;;2.50;99.90;;;;;;6097400;23;20625;-80
2021/01/06 15:55:53;;;;;;;10.00;8.45;;;2.40;99.90;;;;;;6098116;23;20177;-80
2021/01/06 15:58:21;;;;;;;9.20;7.45;;;2.50;99.90;;;;;;6097230;23;20201;-79
2021/01/06 16:00:50;;;;;;;11.00;9.85;;;2.40;99.90;;;;;;6097420;23;20513;-79
2021/01/06 16:03:20;;;;;;;15.40;13.45;;;2.40;99.90;;;;;;6097181;23;20185;-80
2021/01/06 16:05:46;;;;;;;10.77;9.18;;;2.30;99.90;;;;;;6096869;23;20260;-80
2021/01/06 16:08:21;;;;;;;15.55;13.48;;;2.30;99.90;;;;;;6097091;23;20209;-80
2021/01/06 16:10:48;;;;;;;8.90;8.02;;;2.30;99.90;;;;;;6097960;23;20169;-80
2021/01/06 16:13:17;;;;;;;12.55;10.10;;;2.30;99.90;;;;;;6097742;23;20185;-80
2021/01/06 16:15:45;;;;;;;9.48;8.48;;;2.30;99.90;;;;;;6097973;23;20181;-80
2021/01/06 16:18:21;;;;;;;9.82;8.88;;;2.20;99.90;;;;;;6097443;23;20208;-82
2021/01/06 16:20:51;;;;;;;10.75;9.60;;;2.30;99.90;;;;;;6098630;23;20168;-81
2021/01/06 16:23:23;;;;;;;12.93;10.52;;;2.30;99.90;;;;;;6099091;23;20185;-81
2021/01/06 16:25:50;;;;;;;16.45;14.10;;;2.30;99.90;;;;;;6098202;23;20200;-81
2021/01/06 16:28:19;;;;;;;11.15;9.25;;;2.30;99.90;;;;;;6098109;23;20204;-80
2021/01/06 16:30:51;;;;;;;11.02;9.82;;;2.30;99.90;;;;;;6098711;23;20277;-81
2021/01/06 16:33:20;;;;;;;16.85;13.80;;;2.20;99.90;;;;;;6098675;23;20173;-81
2021/01/06 16:35:59;;;;;;;10.80;9.77;;;2.20;99.90;;;;;;6098833;23;20181;-81
2021/01/06 16:38:29;;;;;;;14.57;11.82;;;2.20;99.90;;;;;;6098108;23;20208;-82
2021/01/06 16:41:01;;;;;;;16.50;14.80;;;2.20;99.90;;;;;;6103307;23;20184;-86
2021/01/06 16:44:28;;;;;;;;;;;;;;;;;;;;;
2021/01/06 16:47:39;;;;;;;12.10;9.30;;;2.10;99.90;;;;;;5898203;24;20295;-86
2021/01/06 16:54:08;;;;;;;;;;;;;;;;;;;;;
2021/01/06 16:57:12;;;;;;;9.13;8.07;;;2.20;99.90;;;;;;6055053;23;20241;-86
2021/01/06 17:03:06;;;;;;;9.95;8.82;;;2.10;99.90;;;;;;6060847;23;20185;-85
2021/01/06 17:05:46;;;;;;;;;;;;;;;;;;;;;
2021/01/06 17:13:14;;;;;;;;;;;;;;;;;;;;;
2021/01/06 17:25:21;;;;;;;11.70;8.00;;;1.90;99.90;;;;;;6060251;23;20186;-85
2021/01/06 17:28:43;;;;;;;;;;;;;;;;;;;;;
2021/01/06 20:51:25;;;;;;;9.65;8.27;;;2.20;99.90;;;;;;5898036;24;20190;-87
2021/01/06 22:26:59;;;;;;;7.35;6.65;;;2.40;99.90;;;;;;6070930;23;20306;-86
2021/01/06 22:33:35;;;;;;;;;;;;;;;;;;;;;
2021/01/06 23:03:36;;;;;;;;;;;;;;;;;;;;;
2021/01/06 23:19:30;;;;;;;;;;;;;;;;;;;;;
2021/01/06 23:25:13;;;;;;;7.88;7.13;;;2.40;99.90;;;;;;5906637;24;20653;-84
2021/01/06 23:34:33;;;;;;;;;;;;;;;;;;;;;
2021/01/06 23:40:47;;;;;;;10.40;5.93;;;2.50;99.90;;;;;;5821967;24;20267;-85
2021/01/06 23:43:43;;;;;;;6.90;6.10;;;2.50;99.90;;;;;;5899276;24;20524;-84
2021/01/06 23:46:31;;;;;;;8.27;5.93;;;2.50;99.90;;;;;;5895390;24;20540;-84
2021/01/06 23:49:49;;;;;;;8.38;7.22;;;2.50;99.90;;;;;;5954478;24;20239;-85
2021/01/06 23:59:26;;;;;;;6.80;5.28;;;2.60;99.90;;;;;;5803199;24;20673;-85
